»·PEaware :: N149CD KSAN-KVNY

N149CD :: KSAN-KVNY

FLIGHT INFORMATION

Flight Status: Arrived
Operator: Privately registered:
United States
More flights under this callsign
Pilot: Nathan E. (30132)
Aircraft: CIRRUS SR-22
(SR22)
More flights by this aircraft type
Origin: KSAN San Diego Intl-Lindbergh
United States
Destination: KVNY Van Nuys
United States
More flights between these airports :: More routes between these airports
Route: OCN V23 POPPR SMO125 SMO SMO317 CANOG
File this flight plan on PilotEdge
Remarks: TEC route SANP15
Altitude:
(Current/Filed)
6,000ft
Speed:
(Current/Filed)
170kts
Departed: 07-Jan-21 01:22 PM
Arrived: 07-Jan-21 02:14 PM
Distance/Time
Traveled:
110nm/0:52
Distance/Time
To Go:
Arrived

Flight Plot

Page will automatically refresh every two minutes.


Map Options




Map Legend


Flown Route
Filed Route
Departure Airport
Arrival Airport
Navaid (VOR, NDB)
Fix

Horizontal Profiles

Position Reports

Time Latitude Longitude Heading Altitude Ground
Speed
07-Jan-21 12:59 32.733335 -117.178174 17 20ft 0kts
07-Jan-21 13:00 32.733335 -117.178174 17 20ft 0kts
07-Jan-21 13:02 32.733335 -117.178174 17 20ft 0kts
07-Jan-21 13:03 32.733335 -117.178174 17 20ft 0kts
07-Jan-21 13:04 32.733335 -117.178174 17 20ft 0kts
07-Jan-21 13:05 32.733335 -117.178174 17 20ft 0kts
07-Jan-21 13:06 32.733335 -117.178174 17 20ft 0kts
07-Jan-21 13:07 32.733335 -117.178174 17 20ft 0kts
07-Jan-21 13:08 32.733335 -117.178174 17 20ft 0kts
07-Jan-21 13:09 32.733335 -117.178174 17 20ft 0kts
07-Jan-21 13:10 32.733335 -117.178174 17 20ft 0kts
07-Jan-21 13:11 32.733335 -117.178174 17 20ft 0kts
07-Jan-21 13:12 32.733335 -117.178174 17 20ft 0kts
07-Jan-21 13:13 32.733335 -117.178174 17 20ft 0kts
07-Jan-21 13:14 32.733335 -117.178174 17 20ft 0kts
07-Jan-21 13:15 32.733454 -117.178425 289 20ft 5kts
07-Jan-21 13:16 32.732182 -117.179245 105 20ft 10kts
07-Jan-21 13:17 32.731245 -117.175429 253 20ft 0kts
07-Jan-21 13:17 32.731245 -117.175429 253 20ft 0kts
07-Jan-21 13:18 32.731245 -117.175430 252 20ft 0kts
07-Jan-21 13:20 32.731245 -117.175430 252 20ft 0kts
07-Jan-21 13:20 32.730584 -117.175280 174 20ft 10kts
07-Jan-21 13:21 32.734949 -117.195401 281 341ft 125kts
07-Jan-21 13:23 32.758313 -117.231145 321 1968ft 119kts
07-Jan-21 13:23 32.780592 -117.251665 321 2958ft 121kts
07-Jan-21 13:24 32.807736 -117.276783 321 4060ft 122kts
07-Jan-21 13:25 32.840251 -117.289879 343 5050ft 123kts
07-Jan-21 13:26 32.873817 -117.300584 343 5941ft 125kts
07-Jan-21 13:27 32.912552 -117.312909 344 6034ft 155kts
07-Jan-21 13:28 32.954823 -117.326345 343 6026ft 155kts
07-Jan-21 13:29 32.996940 -117.339771 344 6026ft 155kts
07-Jan-21 13:30 33.039384 -117.353316 344 6026ft 155kts
07-Jan-21 13:31 33.081811 -117.366866 344 6026ft 155kts
07-Jan-21 13:32 33.124387 -117.380477 343 6027ft 155kts
07-Jan-21 13:33 33.161396 -117.404208 316 6289ft 139kts
07-Jan-21 13:34 33.205259 -117.412752 352 6027ft 157kts
07-Jan-21 13:35 33.246877 -117.425566 317 6036ft 155kts
07-Jan-21 13:36 33.278683 -117.462092 315 6027ft 156kts
07-Jan-21 13:37 33.310327 -117.498893 315 6027ft 156kts
07-Jan-21 13:38 33.342365 -117.536247 315 6027ft 156kts
07-Jan-21 13:39 33.374024 -117.573202 315 6027ft 156kts
07-Jan-21 13:40 33.405705 -117.610225 315 6027ft 156kts
07-Jan-21 13:41 33.437121 -117.646976 315 6027ft 156kts
07-Jan-21 13:42 33.453088 -117.665672 315 6027ft 156kts
07-Jan-21 13:43 33.457038 -117.670297 315 6027ft 156kts
07-Jan-21 13:44 33.488207 -117.706835 315 6027ft 156kts
07-Jan-21 13:45 33.519684 -117.743804 315 6027ft 155kts
07-Jan-21 13:46 33.551043 -117.780670 315 6027ft 155kts
07-Jan-21 13:47 33.582337 -117.817470 315 6027ft 155kts
07-Jan-21 13:48 33.613664 -117.854352 315 6027ft 155kts
07-Jan-21 13:49 33.645689 -117.892100 315 6029ft 155kts
07-Jan-21 13:50 33.671917 -117.933372 282 6038ft 156kts
07-Jan-21 13:51 33.680549 -117.985583 281 6032ft 157kts
07-Jan-21 13:52 33.689289 -118.038500 281 6034ft 157kts
07-Jan-21 13:53 33.694878 -118.090834 281 6037ft 156kts
07-Jan-21 13:54 33.698418 -118.142648 241 6037ft 159kts
07-Jan-21 13:55 33.698143 -118.183649 348 6030ft 153kts
07-Jan-21 13:56 33.739580 -118.199986 331 6051ft 154kts
07-Jan-21 13:57 33.777634 -118.228691 323 6050ft 154kts
07-Jan-21 13:58 33.813251 -118.261034 319 6021ft 155kts
07-Jan-21 13:59 33.847923 -118.294617 318 6019ft 153kts
07-Jan-21 14:00 33.881818 -118.328109 317 6024ft 153kts
07-Jan-21 14:01 33.915406 -118.361624 316 6026ft 153kts
07-Jan-21 14:02 33.948591 -118.394830 316 6024ft 153kts
07-Jan-21 14:03 33.982748 -118.429031 316 6022ft 154kts
07-Jan-21 14:04 34.016750 -118.462340 329 6010ft 157kts
07-Jan-21 14:05 34.055966 -118.486936 328 6021ft 156kts
07-Jan-21 14:06 34.095322 -118.512084 328 6031ft 156kts
07-Jan-21 14:07 34.134753 -118.537307 329 6028ft 155kts
07-Jan-21 14:08 34.164544 -118.566496 260 5522ft 122kts
07-Jan-21 14:09 34.142753 -118.560852 80 4448ft 119kts
07-Jan-21 14:10 34.158036 -118.521224 63 3067ft 119kts
07-Jan-21 14:11 34.173438 -118.490974 20 1670ft 93kts
07-Jan-21 14:12 34.198067 -118.489283 353 819ft 78kts
07-Jan-21 14:13 34.204479 -118.490385 223 804ft 3kts
07-Jan-21 14:14 34.206089 -118.491191 356 804ft 9kts
07-Jan-21 14:15 34.206298 -118.492550 178 804ft 0kts

Navigation Log

Ident Type
Flight plan parsing failed, navigation log unavailable